Google Maps JavaScript API Example
Pilot Flight Report # 96483 Submitted by : AST195 on 2022-10-07
Date: 2022-10-07Aircraft: Boeing 737-800
Flight No.: AST2330Distance (Nm): 1070.88
Departure: KLAX - Los Angeles InternationalDestination: KDFW - Dallas-Ft Worth International
 TimeFuelWeightSpeeds  
Out (Taxi)0143 Flight RulesIFR
Off (Takeoff)0143 Flight Level
On (Landing)0500 VSTD
In (Ramp)0500 ZFW
Flight3.28  -  3:1718000  Pax0
Block3.28  -  3:1718000  Cargo0
Departure WeatherKLAX 070353Z 22005KT 10SM OVC011 20/17 A3003 RMK AO2 SLP167 T02000172
Destination WeatherKDFW 070353Z 00000KT 10SM SCT250 23/10 A3014 RMK AO2 SLP200 T02280100
Flight CommentsN/A